CSN0117 YMML-YMHB
Flight info
| Callsign | CSN0117 |
|---|---|
| Flight time | 0h 59m |
| Altitude | 14000 |
| Route | ML H169 IRSOM V33 TASUM |
| Aircraft | A320/M-SDE2E3FGHIJ1RWXY/LB1 |
Departure
| Time | 2026-04-21 09:49 |
|---|---|
| Airport | Melbourne Airport (YMML) |
Arrival
| Time | 2026-04-21 10:48 |
|---|---|
| Airport | Hobart International Airport (YMHB) |
| Time | Latitude | Longitude | Altitude | Speed | Heading |
|---|---|---|---|---|---|
| 2026-04-21 09:27 | -37.66820 | 144.84333 | 402 ft | 0 kts | 82° |
| 2026-04-21 09:37 | -37.66821 | 144.84327 | 402 ft | 2 kts | 82° |
| 2026-04-21 09:38 | -37.66822 | 144.84313 | 401 ft | 2 kts | 82° |
| 2026-04-21 09:38 | -37.66824 | 144.84295 | 401 ft | 4 kts | 82° |
| 2026-04-21 09:38 | -37.66830 | 144.84254 | 400 ft | 6 kts | 78° |
| 2026-04-21 09:38 | -37.66849 | 144.84209 | 395 ft | 6 kts | 40° |
| 2026-04-21 09:39 | -37.66874 | 144.84209 | 395 ft | 0 kts | 351° |
| 2026-04-21 09:42 | -37.66871 | 144.84208 | 395 ft | 0 kts | 351° |
| 2026-04-21 09:44 | -37.66857 | 144.84205 | 394 ft | 6 kts | 351° |
| 2026-04-21 09:44 | -37.66811 | 144.84197 | 397 ft | 7 kts | 352° |
| 2026-04-21 09:44 | -37.66751 | 144.84188 | 401 ft | 13 kts | 2° |
| 2026-04-21 09:45 | -37.66693 | 144.84294 | 406 ft | 21 kts | 95° |
| 2026-04-21 09:45 | -37.66667 | 144.84472 | 409 ft | 21 kts | 84° |
| 2026-04-21 09:45 | -37.66640 | 144.84662 | 412 ft | 23 kts | 84° |
| 2026-04-21 09:45 | -37.66599 | 144.84792 | 414 ft | 16 kts | 20° |
| 2026-04-21 09:46 | -37.66564 | 144.84800 | 414 ft | 0 kts | 359° |
| 2026-04-21 09:46 | -37.66561 | 144.84800 | 414 ft | 3 kts | 359° |
| 2026-04-21 09:46 | -37.66515 | 144.84787 | 411 ft | 11 kts | 343° |
| 2026-04-21 09:47 | -37.66498 | 144.84779 | 413 ft | 4 kts | 331° |
| 2026-04-21 09:47 | -37.66473 | 144.84688 | 411 ft | 0 kts | 303° |
| 2026-04-21 09:47 | -37.66449 | 144.84689 | 414 ft | 16 kts | 12° |
| 2026-04-21 09:48 | -37.66367 | 144.84773 | 413 ft | 16 kts | 14° |
| 2026-04-21 09:48 | -37.66252 | 144.84772 | 415 ft | 18 kts | 329° |
| 2026-04-21 09:48 | -37.66219 | 144.84677 | 417 ft | 10 kts | 273° |
| 2026-04-21 09:48 | -37.66195 | 144.84344 | 413 ft | 88 kts | 276° |
| 2026-04-21 09:49 | -37.66120 | 144.83183 | 421 ft | 172 kts | 274° |
| 2026-04-21 09:49 | -37.66068 | 144.81662 | 1157 ft | 163 kts | 276° |
| 2026-04-21 09:49 | -37.66000 | 144.80379 | 1892 ft | 136 kts | 278° |
| 2026-04-21 09:49 | -37.65922 | 144.79139 | 2682 ft | 149 kts | 277° |
| 2026-04-21 09:50 | -37.65833 | 144.77778 | 3457 ft | 163 kts | 276° |
| 2026-04-21 09:50 | -37.65803 | 144.77305 | 3710 ft | 169 kts | 276° |
| 2026-04-21 09:50 | -37.65589 | 144.72726 | 5362 ft | 238 kts | 265° |
| 2026-04-21 09:51 | -37.66001 | 144.70611 | 6194 ft | 259 kts | 248° |
| 2026-04-21 09:51 | -37.66967 | 144.68619 | 7174 ft | 273 kts | 229° |
| 2026-04-21 09:51 | -37.68436 | 144.67072 | 8320 ft | 279 kts | 212° |
| 2026-04-21 09:51 | -37.70094 | 144.65771 | 9525 ft | 283 kts | 211° |
| 2026-04-21 09:52 | -37.71884 | 144.64716 | 10698 ft | 287 kts | 196° |
| 2026-04-21 09:52 | -37.73888 | 144.64353 | 11658 ft | 300 kts | 179° |
| 2026-04-21 09:52 | -37.75998 | 144.64816 | 12444 ft | 319 kts | 161° |
| 2026-04-21 09:52 | -37.78028 | 144.66136 | 13218 ft | 338 kts | 150° |
| 2026-04-21 09:53 | -37.80093 | 144.67698 | 13972 ft | 357 kts | 150° |
| 2026-04-21 09:53 | -37.82286 | 144.69353 | 14222 ft | 387 kts | 150° |
| 2026-04-21 09:53 | -37.84690 | 144.71163 | 14284 ft | 417 kts | 150° |
| 2026-04-21 09:53 | -37.87257 | 144.73091 | 14364 ft | 439 kts | 150° |
| 2026-04-21 09:54 | -37.89845 | 144.75035 | 15488 ft | 428 kts | 150° |
| 2026-04-21 09:54 | -37.92352 | 144.76922 | 16604 ft | 411 kts | 150° |
| 2026-04-21 09:54 | -37.94767 | 144.78743 | 18087 ft | 399 kts | 150° |
| 2026-04-21 09:54 | -37.97143 | 144.80539 | 19148 ft | 399 kts | 150° |
| 2026-04-21 09:55 | -37.99535 | 144.82349 | 19960 ft | 402 kts | 150° |
| 2026-04-21 09:55 | -38.01133 | 144.83558 | 20470 ft | 405 kts | 150° |
| 2026-04-21 09:55 | -38.04360 | 144.85998 | 21422 ft | 410 kts | 150° |
| 2026-04-21 09:55 | -38.06824 | 144.87860 | 22094 ft | 414 kts | 150° |
| 2026-04-21 09:56 | -38.09312 | 144.89742 | 22731 ft | 418 kts | 150° |
| 2026-04-21 09:56 | -38.11817 | 144.91639 | 23335 ft | 421 kts | 150° |
| 2026-04-21 09:56 | -38.14346 | 144.93553 | 23897 ft | 425 kts | 150° |
| 2026-04-21 09:56 | -38.16895 | 144.95482 | 24378 ft | 427 kts | 150° |
| 2026-04-21 09:57 | -38.18582 | 144.96760 | 24789 ft | 426 kts | 150° |
| 2026-04-21 09:57 | -38.21980 | 144.99343 | 25670 ft | 423 kts | 150° |
| 2026-04-21 09:57 | -38.23645 | 145.00614 | 26095 ft | 422 kts | 150° |
| 2026-04-21 09:57 | -38.27007 | 145.03183 | 26977 ft | 420 kts | 150° |
| 2026-04-21 09:58 | -38.29477 | 145.05066 | 27632 ft | 419 kts | 151° |
| 2026-04-21 09:58 | -38.31989 | 145.06974 | 28136 ft | 422 kts | 151° |
| 2026-04-21 09:58 | -38.33708 | 145.08280 | 28249 ft | 430 kts | 151° |
| 2026-04-21 09:58 | -38.36274 | 145.10233 | 28305 ft | 442 kts | 151° |
| 2026-04-21 09:59 | -38.38941 | 145.12269 | 28304 ft | 453 kts | 151° |
| 2026-04-21 09:59 | -38.42609 | 145.15079 | 28308 ft | 465 kts | 150° |
| 2026-04-21 09:59 | -38.47273 | 145.18660 | 28309 ft | 475 kts | 150° |
| 2026-04-21 10:00 | -38.54212 | 145.22873 | 28313 ft | 478 kts | 162° |
| 2026-04-21 10:00 | -38.59498 | 145.25181 | 28315 ft | 480 kts | 162° |
| 2026-04-21 10:01 | -38.65760 | 145.27920 | 28563 ft | 477 kts | 163° |
| 2026-04-21 10:01 | -38.68892 | 145.29282 | 28758 ft | 474 kts | 163° |
| 2026-04-21 10:01 | -38.72012 | 145.30633 | 28969 ft | 472 kts | 163° |
| 2026-04-21 10:02 | -38.78213 | 145.33303 | 29448 ft | 469 kts | 163° |
| 2026-04-21 10:02 | -38.81300 | 145.34625 | 29709 ft | 467 kts | 163° |
| 2026-04-21 10:02 | -38.84376 | 145.35938 | 29998 ft | 465 kts | 163° |
| 2026-04-21 10:03 | -38.87446 | 145.37247 | 30301 ft | 463 kts | 164° |
| 2026-04-21 10:03 | -38.90458 | 145.38528 | 30581 ft | 462 kts | 164° |
| 2026-04-21 10:03 | -38.93504 | 145.39821 | 30873 ft | 460 kts | 164° |
| 2026-04-21 10:03 | -38.96534 | 145.41102 | 31184 ft | 458 kts | 164° |
| 2026-04-21 10:04 | -38.99553 | 145.42377 | 31518 ft | 455 kts | 164° |
| 2026-04-21 10:04 | -39.02559 | 145.43644 | 31866 ft | 453 kts | 164° |
| 2026-04-21 10:04 | -39.05548 | 145.44902 | 32244 ft | 451 kts | 164° |
| 2026-04-21 10:04 | -39.08521 | 145.46149 | 32633 ft | 449 kts | 165° |
| 2026-04-21 10:05 | -39.11483 | 145.47388 | 33057 ft | 446 kts | 164° |
| 2026-04-21 10:05 | -39.14392 | 145.48602 | 33504 ft | 444 kts | 165° |
| 2026-04-21 10:05 | -39.17321 | 145.49820 | 33973 ft | 441 kts | 165° |
| 2026-04-21 10:05 | -39.20230 | 145.51029 | 34454 ft | 438 kts | 165° |
| 2026-04-21 10:06 | -39.23126 | 145.52230 | 34910 ft | 436 kts | 165° |
| 2026-04-21 10:06 | -39.26002 | 145.53420 | 35391 ft | 432 kts | 165° |
| 2026-04-21 10:06 | -39.28850 | 145.54596 | 35901 ft | 428 kts | 165° |
| 2026-04-21 10:06 | -39.31673 | 145.55759 | 36442 ft | 423 kts | 165° |
| 2026-04-21 10:07 | -39.34461 | 145.56906 | 37014 ft | 418 kts | 166° |
| 2026-04-21 10:07 | -39.37211 | 145.58036 | 37622 ft | 412 kts | 166° |
| 2026-04-21 10:07 | -39.39917 | 145.59145 | 38270 ft | 404 kts | 166° |
| 2026-04-21 10:07 | -39.42575 | 145.60235 | 38948 ft | 397 kts | 166° |
| 2026-04-21 10:08 | -39.45175 | 145.61302 | 39533 ft | 388 kts | 166° |
| 2026-04-21 10:08 | -39.47678 | 145.62331 | 40126 ft | 378 kts | 166° |
| 2026-04-21 10:08 | -39.50146 | 145.63350 | 40760 ft | 366 kts | 166° |
| 2026-04-21 10:08 | -39.52528 | 145.64337 | 41425 ft | 353 kts | 167° |
| 2026-04-21 10:09 | -39.54812 | 145.65292 | 42115 ft | 336 kts | 167° |
| 2026-04-21 10:09 | -39.56985 | 145.66210 | 42681 ft | 323 kts | 167° |
| 2026-04-21 10:09 | -39.59138 | 145.67119 | 42546 ft | 331 kts | 167° |
| 2026-04-21 10:09 | -39.61392 | 145.68054 | 42039 ft | 349 kts | 167° |
| 2026-04-21 10:10 | -39.63733 | 145.69012 | 42044 ft | 351 kts | 167° |
| 2026-04-21 10:10 | -39.66009 | 145.69947 | 42651 ft | 335 kts | 167° |
| 2026-04-21 10:10 | -39.68194 | 145.70852 | 43040 ft | 327 kts | 167° |
| 2026-04-21 10:10 | -39.70364 | 145.71745 | 42754 ft | 339 kts | 167° |
| 2026-04-21 10:11 | -39.72671 | 145.72679 | 42318 ft | 354 kts | 167° |
| 2026-04-21 10:11 | -39.75025 | 145.73622 | 42498 ft | 350 kts | 167° |
| 2026-04-21 10:11 | -39.77302 | 145.74540 | 43100 ft | 335 kts | 167° |
| 2026-04-21 10:11 | -39.79506 | 145.75434 | 43332 ft | 332 kts | 167° |
| 2026-04-21 10:12 | -39.81750 | 145.76337 | 42962 ft | 345 kts | 167° |
| 2026-04-21 10:12 | -39.84095 | 145.77264 | 42636 ft | 357 kts | 167° |
| 2026-04-21 10:12 | -39.86456 | 145.78193 | 42941 ft | 350 kts | 168° |
| 2026-04-21 10:12 | -39.88736 | 145.79096 | 43475 ft | 336 kts | 168° |
| 2026-04-21 10:13 | -39.90938 | 145.79970 | 43573 ft | 337 kts | 168° |
| 2026-04-21 10:13 | -39.93224 | 145.80868 | 43175 ft | 350 kts | 168° |
| 2026-04-21 10:13 | -39.95598 | 145.81788 | 42959 ft | 358 kts | 168° |
| 2026-04-21 10:13 | -39.97960 | 145.82700 | 43320 ft | 349 kts | 168° |
| 2026-04-21 10:14 | -40.00243 | 145.83587 | 43796 ft | 339 kts | 168° |
| 2026-04-21 10:14 | -40.04799 | 145.85347 | 43401 ft | 354 kts | 168° |
| 2026-04-21 10:14 | -40.07218 | 145.86265 | 43291 ft | 359 kts | 168° |
| 2026-04-21 10:15 | -40.09591 | 145.87164 | 43695 ft | 349 kts | 168° |
| 2026-04-21 10:15 | -40.11883 | 145.88037 | 44094 ft | 340 kts | 168° |
| 2026-04-21 10:15 | -40.14140 | 145.88895 | 43992 ft | 346 kts | 168° |
| 2026-04-21 10:15 | -40.16495 | 145.89779 | 43616 ft | 358 kts | 168° |
| 2026-04-21 10:16 | -40.18898 | 145.90672 | 43591 ft | 359 kts | 168° |
| 2026-04-21 10:16 | -40.21274 | 145.91554 | 44027 ft | 349 kts | 169° |
| 2026-04-21 10:16 | -40.23576 | 145.92414 | 44346 ft | 343 kts | 169° |
| 2026-04-21 10:16 | -40.25889 | 145.93274 | 44165 ft | 349 kts | 169° |
| 2026-04-21 10:17 | -40.28271 | 145.94148 | 43821 ft | 360 kts | 169° |
| 2026-04-21 10:17 | -40.33031 | 145.95881 | 44315 ft | 349 kts | 169° |
| 2026-04-21 10:17 | -40.35354 | 145.96730 | 44557 ft | 345 kts | 169° |
| 2026-04-21 10:18 | -40.37684 | 145.97577 | 44323 ft | 353 kts | 169° |
| 2026-04-21 10:18 | -40.40087 | 145.98440 | 44041 ft | 362 kts | 169° |
| 2026-04-21 10:18 | -40.42517 | 145.99305 | 44154 ft | 359 kts | 169° |
| 2026-04-21 10:18 | -40.44893 | 146.00154 | 44561 ft | 350 kts | 169° |
| 2026-04-21 10:19 | -40.47231 | 146.00991 | 44726 ft | 348 kts | 169° |
| 2026-04-21 10:19 | -40.49590 | 146.01830 | 44483 ft | 355 kts | 169° |
| 2026-04-21 10:19 | -40.52007 | 146.02680 | 44240 ft | 363 kts | 170° |
| 2026-04-21 10:19 | -40.54442 | 146.03530 | 44399 ft | 359 kts | 170° |
| 2026-04-21 10:20 | -40.56829 | 146.04366 | 44772 ft | 351 kts | 170° |
| 2026-04-21 10:20 | -40.59146 | 146.05182 | 44887 ft | 350 kts | 170° |
| 2026-04-21 10:20 | -40.61516 | 146.06013 | 44640 ft | 357 kts | 170° |
| 2026-04-21 10:20 | -40.63959 | 146.06865 | 44258 ft | 369 kts | 169° |
| 2026-04-21 10:21 | -40.66435 | 146.07728 | 44427 ft | 364 kts | 170° |
| 2026-04-21 10:21 | -40.68872 | 146.08605 | 44214 ft | 373 kts | 168° |
| 2026-04-21 10:21 | -40.71421 | 146.09916 | 43080 ft | 409 kts | 152° |
| 2026-04-21 10:22 | -40.76068 | 146.14474 | 42314 ft | 430 kts | 147° |
| 2026-04-21 10:22 | -40.78484 | 146.16899 | 41354 ft | 441 kts | 146° |
| 2026-04-21 10:22 | -40.80948 | 146.19367 | 40461 ft | 447 kts | 146° |
| 2026-04-21 10:22 | -40.83429 | 146.21849 | 39674 ft | 449 kts | 146° |
| 2026-04-21 10:23 | -40.85884 | 146.24307 | 38960 ft | 448 kts | 146° |
| 2026-04-21 10:23 | -40.88364 | 146.26790 | 38095 ft | 448 kts | 146° |
| 2026-04-21 10:23 | -40.90844 | 146.29274 | 37201 ft | 448 kts | 146° |
| 2026-04-21 10:23 | -40.93365 | 146.31721 | 36012 ft | 451 kts | 151° |
| 2026-04-21 10:24 | -40.96197 | 146.33494 | 34784 ft | 452 kts | 162° |
| 2026-04-21 10:24 | -40.99167 | 146.34914 | 33482 ft | 455 kts | 162° |
| 2026-04-21 10:24 | -41.02158 | 146.36332 | 32189 ft | 457 kts | 162° |
| 2026-04-21 10:24 | -41.05155 | 146.37749 | 30940 ft | 458 kts | 162° |
| 2026-04-21 10:25 | -41.08155 | 146.39173 | 29609 ft | 458 kts | 162° |
| 2026-04-21 10:25 | -41.11119 | 146.40585 | 28283 ft | 458 kts | 162° |
| 2026-04-21 10:25 | -41.14117 | 146.42018 | 26993 ft | 458 kts | 162° |
| 2026-04-21 10:25 | -41.17100 | 146.43487 | 25769 ft | 458 kts | 158° |
| 2026-04-21 10:26 | -41.19986 | 146.45279 | 24584 ft | 457 kts | 156° |
| 2026-04-21 10:26 | -41.22847 | 146.47091 | 23342 ft | 455 kts | 156° |
| 2026-04-21 10:26 | -41.25709 | 146.48899 | 22030 ft | 455 kts | 156° |
| 2026-04-21 10:26 | -41.28560 | 146.50697 | 20764 ft | 454 kts | 156° |
| 2026-04-21 10:27 | -41.31411 | 146.52491 | 19568 ft | 452 kts | 155° |
| 2026-04-21 10:27 | -41.34215 | 146.54256 | 18431 ft | 451 kts | 155° |
| 2026-04-21 10:27 | -41.37026 | 146.56032 | 17470 ft | 443 kts | 155° |
| 2026-04-21 10:27 | -41.39781 | 146.57778 | 16549 ft | 436 kts | 155° |
| 2026-04-21 10:28 | -41.42501 | 146.59502 | 15634 ft | 430 kts | 155° |
| 2026-04-21 10:28 | -41.45185 | 146.61205 | 14871 ft | 423 kts | 155° |
| 2026-04-21 10:28 | -41.47783 | 146.62856 | 14680 ft | 402 kts | 155° |
| 2026-04-21 10:28 | -41.50219 | 146.64405 | 14887 ft | 373 kts | 155° |
| 2026-04-21 10:29 | -41.52475 | 146.65842 | 15128 ft | 347 kts | 155° |
| 2026-04-21 10:29 | -41.54650 | 146.67228 | 15344 ft | 350 kts | 155° |
| 2026-04-21 10:29 | -41.56821 | 146.68611 | 15427 ft | 350 kts | 155° |
| 2026-04-21 10:29 | -41.59020 | 146.70013 | 15439 ft | 350 kts | 155° |
| 2026-04-21 10:30 | -41.61215 | 146.71415 | 15445 ft | 350 kts | 155° |
| 2026-04-21 10:30 | -41.63412 | 146.72816 | 15442 ft | 350 kts | 155° |
| 2026-04-21 10:30 | -41.65608 | 146.74219 | 15443 ft | 350 kts | 155° |
| 2026-04-21 10:30 | -41.67802 | 146.75628 | 15442 ft | 350 kts | 155° |
| 2026-04-21 10:31 | -41.69987 | 146.77038 | 15443 ft | 349 kts | 155° |
| 2026-04-21 10:31 | -41.72178 | 146.78456 | 15439 ft | 349 kts | 155° |
| 2026-04-21 10:31 | -41.74364 | 146.79872 | 15439 ft | 349 kts | 155° |
| 2026-04-21 10:31 | -41.76549 | 146.81288 | 15443 ft | 349 kts | 155° |
| 2026-04-21 10:32 | -41.78734 | 146.82706 | 15410 ft | 348 kts | 155° |
| 2026-04-21 10:32 | -41.80904 | 146.84117 | 15022 ft | 345 kts | 155° |
| 2026-04-21 10:32 | -41.83029 | 146.85498 | 14535 ft | 343 kts | 155° |
| 2026-04-21 10:32 | -41.85172 | 146.86889 | 14022 ft | 341 kts | 154° |
| 2026-04-21 10:33 | -41.87301 | 146.88272 | 13535 ft | 340 kts | 154° |
| 2026-04-21 10:33 | -41.89435 | 146.89654 | 13415 ft | 341 kts | 154° |
| 2026-04-21 10:33 | -41.91568 | 146.91037 | 13428 ft | 341 kts | 154° |
| 2026-04-21 10:33 | -41.93703 | 146.92425 | 13431 ft | 341 kts | 154° |
| 2026-04-21 10:34 | -41.95838 | 146.93816 | 13431 ft | 341 kts | 154° |
| 2026-04-21 10:34 | -41.97971 | 146.95207 | 13430 ft | 341 kts | 154° |
| 2026-04-21 10:34 | -42.00106 | 146.96598 | 13429 ft | 341 kts | 154° |
| 2026-04-21 10:34 | -42.02212 | 146.97971 | 13423 ft | 341 kts | 154° |
| 2026-04-21 10:35 | -42.04349 | 146.99364 | 13430 ft | 341 kts | 154° |
| 2026-04-21 10:35 | -42.06483 | 147.00759 | 13428 ft | 341 kts | 154° |
| 2026-04-21 10:35 | -42.08618 | 147.02158 | 13427 ft | 341 kts | 154° |
| 2026-04-21 10:35 | -42.10755 | 147.03560 | 13427 ft | 342 kts | 154° |
| 2026-04-21 10:36 | -42.12889 | 147.04960 | 13426 ft | 341 kts | 154° |
| 2026-04-21 10:36 | -42.15025 | 147.06362 | 13423 ft | 341 kts | 154° |
| 2026-04-21 10:36 | -42.17097 | 147.07923 | 13401 ft | 342 kts | 146° |
| 2026-04-21 10:36 | -42.18950 | 147.09970 | 13420 ft | 353 kts | 135° |
| 2026-04-21 10:37 | -42.20755 | 147.12223 | 13424 ft | 353 kts | 136° |
| 2026-04-21 10:37 | -42.22561 | 147.14464 | 13424 ft | 353 kts | 136° |
| 2026-04-21 10:37 | -42.24369 | 147.16702 | 13424 ft | 352 kts | 136° |
| 2026-04-21 10:37 | -42.26172 | 147.18933 | 13429 ft | 352 kts | 136° |
| 2026-04-21 10:38 | -42.27977 | 147.21168 | 13423 ft | 351 kts | 136° |
| 2026-04-21 10:38 | -42.29779 | 147.23398 | 13420 ft | 351 kts | 136° |
| 2026-04-21 10:38 | -42.31614 | 147.25570 | 13422 ft | 352 kts | 142° |
| 2026-04-21 10:38 | -42.33657 | 147.27311 | 13424 ft | 353 kts | 150° |
| 2026-04-21 10:39 | -42.35805 | 147.28915 | 13424 ft | 353 kts | 150° |
| 2026-04-21 10:39 | -42.37957 | 147.30524 | 13425 ft | 353 kts | 150° |
| 2026-04-21 10:39 | -42.40104 | 147.32131 | 13427 ft | 353 kts | 150° |
| 2026-04-21 10:39 | -42.42255 | 147.33741 | 13428 ft | 353 kts | 150° |
| 2026-04-21 10:40 | -42.44389 | 147.35337 | 13419 ft | 342 kts | 150° |
| 2026-04-21 10:40 | -42.46419 | 147.36855 | 13423 ft | 325 kts | 150° |
| 2026-04-21 10:40 | -42.48358 | 147.38306 | 13424 ft | 316 kts | 150° |
| 2026-04-21 10:40 | -42.50281 | 147.39751 | 13422 ft | 316 kts | 149° |
| 2026-04-21 10:41 | -42.52202 | 147.41194 | 13423 ft | 316 kts | 149° |
| 2026-04-21 10:41 | -42.54120 | 147.42635 | 13425 ft | 316 kts | 149° |
| 2026-04-21 10:41 | -42.56044 | 147.44085 | 13387 ft | 316 kts | 149° |
| 2026-04-21 10:41 | -42.57932 | 147.45506 | 13074 ft | 314 kts | 149° |
| 2026-04-21 10:42 | -42.59751 | 147.47109 | 12690 ft | 310 kts | 139° |
| 2026-04-21 10:42 | -42.61394 | 147.48989 | 12293 ft | 308 kts | 138° |
| 2026-04-21 10:42 | -42.63034 | 147.50861 | 11838 ft | 309 kts | 138° |
| 2026-04-21 10:42 | -42.64709 | 147.52767 | 11072 ft | 320 kts | 138° |
| 2026-04-21 10:43 | -42.66442 | 147.54735 | 10335 ft | 328 kts | 139° |
| 2026-04-21 10:43 | -42.68209 | 147.56743 | 9523 ft | 334 kts | 139° |
| 2026-04-21 10:43 | -42.69982 | 147.58760 | 9117 ft | 327 kts | 138° |
| 2026-04-21 10:43 | -42.71683 | 147.60693 | 8937 ft | 312 kts | 138° |
| 2026-04-21 10:44 | -42.73352 | 147.62590 | 8260 ft | 315 kts | 138° |
| 2026-04-21 10:44 | -42.75047 | 147.64523 | 7540 ft | 320 kts | 138° |
| 2026-04-21 10:44 | -42.76761 | 147.66484 | 6834 ft | 324 kts | 138° |
| 2026-04-21 10:44 | -42.78491 | 147.68464 | 6093 ft | 326 kts | 138° |
| 2026-04-21 10:45 | -42.80294 | 147.70277 | 5381 ft | 329 kts | 153° |
| 2026-04-21 10:45 | -42.82485 | 147.70854 | 5077 ft | 317 kts | 185° |
| 2026-04-21 10:45 | -42.84512 | 147.69997 | 4996 ft | 296 kts | 209° |
| 2026-04-21 10:45 | -42.86159 | 147.68506 | 5011 ft | 281 kts | 220° |
| 2026-04-21 10:46 | -42.87629 | 147.66747 | 5012 ft | 280 kts | 232° |
| 2026-04-21 10:46 | -42.88555 | 147.64468 | 4978 ft | 275 kts | 255° |
| 2026-04-21 10:46 | -42.88936 | 147.61935 | 4451 ft | 273 kts | 271° |
| 2026-04-21 10:46 | -42.88731 | 147.59376 | 3786 ft | 272 kts | 290° |
| 2026-04-21 10:47 | -42.87891 | 147.57101 | 3179 ft | 267 kts | 311° |
| 2026-04-21 10:47 | -42.86657 | 147.55347 | 3031 ft | 242 kts | 317° |
| 2026-04-21 10:47 | -42.85545 | 147.53807 | 1758 ft | 221 kts | 318° |
| 2026-04-21 10:47 | -42.84518 | 147.52392 | 520 ft | 202 kts | 319° |
| 2026-04-21 10:48 | -42.83564 | 147.51092 | 32 ft | 179 kts | 319° |
| 2026-04-21 10:48 | -42.82786 | 147.50036 | 25 ft | 124 kts | 315° |
| 2026-04-21 10:48 | -42.82541 | 147.49714 | 20 ft | 1 kts | 279° |
| 2026-04-21 10:48 | -42.82554 | 147.49770 | 23 ft | 12 kts | 293° |
| 2026-04-21 10:49 | -42.82552 | 147.49886 | 21 ft | 11 kts | 218° |
| 2026-04-21 10:49 | -42.82499 | 147.49943 | 21 ft | 0 kts | 219° |